createdAt,value
2022-12-05T00:00:49.236Z,97.56
2022-12-05T00:10:50.586Z,97.91
2022-12-05T00:20:51.915Z,97.92
2022-12-05T00:30:53.283Z,98.33
2022-12-05T00:40:54.615Z,98.08
2022-12-05T00:51:10.404Z,98.02
2022-12-05T01:01:18.367Z,97.95
2022-12-05T01:11:21.488Z,97.86
2022-12-05T01:21:23.457Z,97.88
2022-12-05T01:31:33.159Z,98.15
2022-12-05T01:41:38.222Z,99.21
2022-12-05T01:51:43.077Z,98.41
2022-12-05T02:01:44.744Z,98.62
2022-12-05T02:11:58.206Z,98.73
2022-12-05T02:22:18.116Z,98.27
2022-12-05T02:32:19.462Z,98.62
2022-12-05T02:42:28.959Z,98.37
2022-12-05T02:52:33.292Z,99.23
2022-12-05T03:02:35.082Z,98.51
2022-12-05T03:12:44.403Z,99.02
2022-12-05T03:22:57.273Z,99.84
2022-12-05T03:33:21.950Z,99.57
2022-12-05T03:43:35.999Z,98.98
2022-12-05T03:53:43.943Z,99.86
2022-12-05T04:03:51.814Z,99.25
2022-12-05T04:13:59.260Z,100.00
2022-12-05T04:24:19.272Z,99.94
2022-12-05T04:34:21.868Z,100.00
2022-12-05T04:44:46.530Z,99.54
2022-12-05T04:54:54.696Z,100.00
2022-12-05T05:04:58.724Z,100.00
2022-12-05T05:15:00.072Z,100.00
2022-12-05T05:25:01.447Z,100.00
2022-12-05T05:35:02.800Z,100.00
2022-12-05T05:45:04.386Z,100.00
2022-12-05T05:55:07.510Z,100.00
2022-12-05T06:05:09.134Z,100.00
2022-12-05T06:15:11.288Z,100.00
2022-12-05T06:25:12.652Z,100.00
2022-12-05T06:35:16.684Z,100.00
2022-12-05T06:45:18.209Z,100.00
2022-12-05T06:55:19.551Z,100.00
2022-12-05T07:05:20.940Z,100.00
2022-12-05T07:15:22.379Z,100.00
2022-12-05T07:25:24.729Z,100.00
2022-12-05T07:35:26.048Z,100.00
2022-12-05T07:45:27.450Z,100.00
2022-12-05T07:55:28.928Z,100.00
2022-12-05T08:05:30.361Z,100.00
2022-12-05T08:15:34.788Z,100.00
2022-12-05T08:25:36.150Z,100.00
2022-12-05T08:35:37.856Z,100.00
2022-12-05T08:45:39.274Z,100.00
2022-12-05T08:55:40.639Z,100.00
2022-12-05T09:05:42.013Z,100.00
2022-12-05T09:15:43.382Z,100.00
2022-12-05T09:25:44.791Z,100.00
2022-12-05T09:35:46.106Z,100.00
2022-12-05T09:45:58.974Z,100.00
2022-12-05T09:56:13.711Z,100.00
2022-12-05T10:06:36.652Z,100.00
2022-12-05T10:16:51.540Z,100.00
2022-12-05T10:27:07.023Z,100.00
2022-12-05T10:37:17.652Z,100.00
2022-12-05T10:47:19.087Z,100.00
2022-12-05T10:57:22.428Z,100.00
2022-12-05T11:07:31.182Z,100.00
2022-12-05T11:17:36.627Z,100.00
2022-12-05T11:27:37.992Z,100.00
2022-12-05T11:37:48.298Z,100.00
2022-12-05T11:48:04.775Z,100.00
2022-12-05T11:58:30.974Z,100.00
2022-12-05T12:09:11.641Z,100.00
2022-12-05T12:19:38.515Z,100.00
2022-12-05T12:30:02.800Z,100.00
2022-12-05T12:40:18.677Z,100.00
2022-12-05T12:50:26.922Z,100.00
2022-12-05T13:00:34.175Z,100.00
2022-12-05T13:10:40.854Z,100.00
2022-12-05T13:20:42.279Z,100.00
2022-12-05T13:31:04.733Z,100.00
2022-12-05T13:41:25.383Z,100.00
2022-12-05T13:51:39.483Z,100.00
2022-12-05T14:01:47.645Z,100.00
2022-12-05T14:12:10.127Z,100.00
2022-12-05T14:22:31.211Z,100.00
2022-12-05T14:32:36.365Z,100.00
2022-12-05T14:42:50.703Z,100.00
2022-12-05T14:53:30.304Z,100.00
2022-12-05T15:03:35.516Z,100.00
2022-12-05T15:13:37.053Z,100.00
2022-12-05T15:23:39.506Z,100.00
2022-12-05T15:33:52.362Z,100.00
2022-12-05T15:43:57.970Z,100.00
2022-12-05T15:54:28.862Z,100.00
2022-12-05T16:04:53.495Z,100.00
2022-12-05T16:15:01.251Z,100.00
2022-12-05T16:25:14.258Z,100.00
2022-12-05T16:35:29.230Z,100.00
2022-12-05T16:45:45.270Z,100.00
2022-12-05T16:55:47.086Z,100.00
2022-12-05T17:05:48.419Z,100.00
2022-12-05T17:15:50.176Z,100.00
2022-12-05T17:25:54.078Z,100.00
2022-12-05T17:35:55.496Z,100.00
2022-12-05T17:45:59.874Z,100.00
2022-12-05T17:56:01.221Z,100.00
2022-12-05T18:06:05.115Z,100.00
2022-12-05T18:16:07.074Z,100.00
2022-12-05T18:26:10.165Z,100.00
2022-12-05T18:36:15.627Z,100.00
2022-12-05T18:46:17.023Z,100.00
2022-12-05T18:56:30.409Z,100.00
2022-12-05T19:06:34.365Z,100.00
2022-12-05T19:16:36.247Z,100.00
2022-12-05T19:26:38.038Z,100.00
2022-12-05T19:36:42.904Z,100.00
2022-12-05T19:46:44.359Z,100.00
2022-12-05T19:56:45.758Z,100.00
2022-12-05T20:06:49.114Z,100.00
2022-12-05T20:16:51.883Z,100.00
2022-12-05T20:26:53.243Z,100.00
2022-12-05T20:36:54.708Z,100.00
2022-12-05T20:46:56.057Z,100.00
2022-12-05T20:56:57.776Z,100.00
2022-12-05T21:06:59.125Z,100.00
2022-12-05T21:17:00.673Z,100.00
2022-12-05T21:27:04.263Z,100.00
2022-12-05T21:37:05.583Z,100.00
2022-12-05T21:47:06.916Z,100.00
2022-12-05T21:57:08.292Z,100.00
2022-12-05T22:07:09.638Z,100.00
2022-12-05T22:17:10.993Z,100.00
2022-12-05T22:27:12.336Z,100.00
2022-12-05T22:37:13.732Z,100.00
2022-12-05T22:47:15.103Z,100.00
2022-12-05T22:57:16.448Z,100.00
2022-12-05T23:07:17.952Z,100.00
2022-12-05T23:17:19.302Z,100.00
2022-12-05T23:27:20.816Z,100.00
2022-12-05T23:37:22.175Z,100.00
2022-12-05T23:47:23.532Z,100.00
2022-12-05T23:57:24.856Z,100.00
